Time;durP1;ratioP1;P1;durP2;ratioP2;P2;SDS_P1;SDS_P2;PMS_P1;PMS_P2;Temp;Humidity;BMP_temperature;BMP_pressure;BME280_temperature;BME280_humidity;BME280_pressure;Samples;Min_cycle;Max_cycle;Signal;HPM_P1;HPM_P2
2022/08/15 00:00:27;;;;;;;0.00;0.00;;;25.80;84.60;;;;;;4987432;28;20047;-81
2022/08/15 00:02:54;;;;;;;;;;;25.30;84.30;;;;;;4977455;28;20054;-84
2022/08/15 00:05:31;;;;;;;0.00;0.00;;;25.40;84.10;;;;;;4977491;28;19916;-82
2022/08/15 00:08:04;;;;;;;0.00;0.00;;;25.30;84.30;;;;;;4973768;28;20028;-83
2022/08/15 00:10:50;;;;;;;0.00;0.00;;;25.20;84.70;;;;;;4972101;28;20027;-82
2022/08/15 00:13:41;;;;;;;0.00;0.00;;;25.20;84.80;;;;;;4986298;28;20065;-83
2022/08/15 00:16:09;;;;;;;0.00;0.00;;;27.30;86.90;;;;;;4974875;28;20077;-82
2022/08/15 00:18:36;;;;;;;0.00;0.00;;;25.20;85.90;;;;;;4975038;28;20095;-84
2022/08/15 00:21:06;;;;;;;;;;;26.30;86.00;;;;;;4975518;28;20047;-83
2022/08/15 00:23:40;;;;;;;0.00;0.00;;;25.20;84.80;;;;;;4975758;28;19937;-80
2022/08/15 00:26:09;;;;;;;0.00;0.00;;;25.00;84.80;;;;;;4977009;28;20031;-81
2022/08/15 00:28:58;;;;;;;0.00;0.00;;;24.90;84.60;;;;;;4989977;28;20103;-84
2022/08/15 00:31:24;;;;;;;0.00;0.00;;;24.90;84.90;;;;;;4972219;28;20035;-84
2022/08/15 00:34:09;;;;;;;0.00;0.00;;;24.90;84.10;;;;;;4970033;28;20070;-83
2022/08/15 00:36:57;;;;;;;0.00;0.00;;;;;;;;;;4987360;28;20134;-82
2022/08/15 00:39:25;;;;;;;0.00;0.00;;;25.10;82.80;;;;;;4976068;28;20049;-83
2022/08/15 00:42:03;;;;;;;0.00;0.00;;;25.10;82.90;;;;;;4974318;28;20048;-81
2022/08/15 00:44:40;;;;;;;0.00;0.00;;;25.00;83.30;;;;;;4988262;28;20062;-82
2022/08/15 00:47:28;;;;;;;0.00;0.00;;;26.20;83.80;;;;;;4976567;28;20055;-83
2022/08/15 00:50:06;;;;;;;0.00;0.00;;;26.40;83.80;;;;;;4988188;28;20043;-82
2022/08/15 00:52:53;;;;;;;0.00;0.00;;;25.20;82.50;;;;;;4974266;28;20102;-83
2022/08/15 00:55:21;;;;;;;0.00;0.00;;;25.30;82.90;;;;;;4976341;28;20047;-82
2022/08/15 00:57:53;;;;;;;0.00;0.00;;;25.30;82.70;;;;;;4991069;28;20050;-83
2022/08/15 01:00:32;;;;;;;0.00;0.00;;;25.30;83.00;;;;;;4992996;28;20039;-85
2022/08/15 01:03:15;;;;;;;0.00;0.00;;;25.30;83.00;;;;;;4973990;28;20050;-83
2022/08/15 01:05:44;;;;;;;0.00;0.00;;;25.30;82.90;;;;;;4974007;28;20030;-84
2022/08/15 01:08:16;;;;;;;0.00;0.00;;;25.30;82.70;;;;;;4987989;28;20036;-83
2022/08/15 01:10:47;;;;;;;0.00;0.00;;;25.30;83.10;;;;;;4973781;28;20043;-82
2022/08/15 01:13:29;;;;;;;0.00;0.00;;;25.30;83.00;;;;;;4981786;28;20063;-83
2022/08/15 01:16:18;;;;;;;0.00;0.00;;;26.10;84.10;;;;;;4973823;28;20058;-84
2022/08/15 01:19:03;;;;;;;0.00;0.00;;;25.20;83.20;;;;;;4985481;28;20047;-83
2022/08/15 01:21:38;;;;;;;0.00;0.00;;;26.90;84.90;;;;;;4968096;28;20035;-83
2022/08/15 01:24:17;;;;;;;0.00;0.00;;;25.20;83.40;;;;;;4971264;28;20027;-84
2022/08/15 01:26:46;;;;;;;0.00;0.00;;;25.20;83.80;;;;;;4987755;28;20031;-84
2022/08/15 01:29:18;;;;;;;0.00;0.00;;;25.30;84.00;;;;;;4988958;28;20051;-85
2022/08/15 01:31:47;;;;;;;0.00;0.00;;;25.30;84.30;;;;;;4989470;28;20051;-84
2022/08/15 01:34:15;;;;;;;;;;;25.30;84.20;;;;;;4970720;28;20061;-81
2022/08/15 01:36:46;;;;;;;0.00;0.00;;;26.10;85.80;;;;;;4975325;28;19922;-83
2022/08/15 01:39:15;;;;;;;;;;;25.20;86.00;;;;;;4987848;28;20038;-82
2022/08/15 01:41:52;;;;;;;0.00;0.00;;;25.10;86.70;;;;;;4972370;28;19922;-84
2022/08/15 01:44:26;;;;;;;0.00;0.00;;;25.10;87.10;;;;;;4970118;28;20043;-83
2022/08/15 01:47:13;;;;;;;0.00;0.00;;;25.00;88.60;;;;;;4977456;28;20053;-85
2022/08/15 01:49:52;;;;;;;0.00;0.00;;;24.90;87.90;;;;;;4976352;28;20046;-82
2022/08/15 01:52:31;;;;;;;0.00;0.00;;;25.90;89.60;;;;;;4973947;28;20074;-81
2022/08/15 01:55:22;;;;;;;0.00;0.00;;;26.30;90.10;;;;;;4917526;29;20131;-80
2022/08/15 01:57:50;;;;;;;0.00;0.00;;;24.80;88.70;;;;;;4930651;29;20044;-84
2022/08/15 02:00:20;;;;;;;0.00;0.00;;;24.80;90.00;;;;;;4935075;29;20056;-82
2022/08/15 02:02:52;;;;;;;0.00;0.00;;;24.70;89.10;;;;;;4920401;29;20043;-81
2022/08/15 02:05:20;;;;;;;0.00;0.00;;;24.70;89.60;;;;;;4913044;29;20051;-82
2022/08/15 02:07:47;;;;;;;0.00;0.00;;;24.70;90.80;;;;;;4934334;29;20044;-83
2022/08/15 02:10:34;;;;;;;0.00;0.00;;;24.70;90.50;;;;;;4932227;29;20084;-83
2022/08/15 02:13:04;;;;;;;0.00;0.00;;;24.60;90.30;;;;;;4951183;28;20079;-81
2022/08/15 02:15:42;;;;;;;0.00;0.00;;;26.70;91.10;;;;;;4973213;28;20039;-81
2022/08/15 02:18:10;;;;;;;0.00;0.00;;;24.60;90.70;;;;;;4968758;28;20051;-82
2022/08/15 02:20:45;;;;;;;0.00;0.00;;;24.50;90.60;;;;;;4990650;28;20046;-84
2022/08/15 02:23:12;;;;;;;0.00;0.00;;;24.90;90.90;;;;;;4991809;28;20047;-82
2022/08/15 02:25:43;;;;;;;0.00;0.00;;;24.50;90.30;;;;;;4971225;28;20067;-83
2022/08/15 02:28:11;;;;;;;0.00;0.00;;;24.40;90.70;;;;;;4992714;28;20093;-83
2022/08/15 02:30:58;;;;;;;0.00;0.00;;;24.40;90.70;;;;;;4987507;28;20058;-82
2022/08/15 02:33:27;;;;;;;0.00;0.00;;;24.30;91.00;;;;;;4977847;28;20051;-83
2022/08/15 02:35:54;;;;;;;0.00;0.00;;;24.30;90.60;;;;;;4972177;28;20047;-83
2022/08/15 02:38:21;;;;;;;0.00;0.00;;;24.30;90.30;;;;;;4984814;28;20126;-82
2022/08/15 02:40:49;;;;;;;0.00;0.00;;;24.30;90.40;;;;;;4974835;28;20055;-83
2022/08/15 02:43:20;;;;;;;0.00;0.00;;;24.30;90.60;;;;;;4972377;28;20043;-82
2022/08/15 02:45:47;;;;;;;0.00;0.00;;;;;;;;;;4973152;28;20047;-83
2022/08/15 02:48:35;;;;;;;0.00;0.00;;;24.20;90.50;;;;;;4972821;28;20102;-82
2022/08/15 02:51:07;;;;;;;0.00;0.00;;;24.20;89.50;;;;;;4987873;28;20028;-81
2022/08/15 02:53:43;;;;;;;0.00;0.00;;;26.00;90.70;;;;;;4989145;28;20297;-81
2022/08/15 02:56:14;;;;;;;0.00;0.00;;;24.20;89.90;;;;;;4989606;28;20035;-84
2022/08/15 02:58:44;;;;;;;0.00;0.00;;;24.10;90.20;;;;;;4974229;28;20047;-81
2022/08/15 03:01:12;;;;;;;0.00;0.00;;;23.90;90.80;;;;;;4971602;28;20043;-83
2022/08/15 03:03:43;;;;;;;0.00;0.00;;;23.80;91.10;;;;;;4976130;28;20067;-81
2022/08/15 03:06:13;;;;;;;0.00;0.00;;;23.80;91.20;;;;;;4992667;28;20072;-83
2022/08/15 03:09:00;;;;;;;0.00;0.00;;;23.80;90.70;;;;;;4976354;28;20367;-83
2022/08/15 03:11:28;;;;;;;0.00;0.00;;;23.90;91.10;;;;;;4993864;28;20059;-81
2022/08/15 03:14:19;;;;;;;0.00;0.00;;;23.80;91.20;;;;;;4987038;28;20158;-81
2022/08/15 03:17:01;;;;;;;0.00;0.00;;;23.80;91.40;;;;;;4991105;28;20055;-82
2022/08/15 03:19:33;;;;;;;0.00;0.00;;;;;;;;;;4992378;28;20043;-83
2022/08/15 03:22:06;;;;;;;0.00;0.00;;;23.80;90.60;;;;;;4974043;28;20031;-83
2022/08/15 03:24:34;;;;;;;0.00;0.00;;;;;;;;;;4977482;28;20047;-80
2022/08/15 03:27:01;;;;;;;0.00;0.00;;;23.80;90.70;;;;;;4993025;28;20032;-81
2022/08/15 03:29:31;;;;;;;0.00;0.00;;;24.30;91.40;;;;;;4975586;28;20059;-81
2022/08/15 03:32:10;;;;;;;0.00;0.00;;;23.80;91.50;;;;;;4977467;28;20027;-81
2022/08/15 03:34:57;;;;;;;0.00;0.00;;;23.80;91.40;;;;;;4977068;28;20103;-81
2022/08/15 03:37:25;;;;;;;0.00;0.00;;;;;;;;;;4992597;28;20112;-83
2022/08/15 03:39:53;;;;;;;0.00;0.00;;;23.60;91.00;;;;;;4993559;28;20050;-83
2022/08/15 03:42:20;;;;;;;0.00;0.00;;;25.50;91.90;;;;;;4976556;28;20067;-84
2022/08/15 03:44:49;;;;;;;0.00;0.00;;;23.70;91.50;;;;;;4977926;28;20039;-83
2022/08/15 03:47:16;;;;;;;0.00;0.00;;;24.70;91.50;;;;;;4980054;28;20031;-82
2022/08/15 03:49:44;;;;;;;0.00;0.00;;;24.00;92.10;;;;;;4978543;28;20043;-84
2022/08/15 03:52:32;;;;;;;0.00;0.00;;;23.70;92.80;;;;;;4977953;28;20055;-83
2022/08/15 03:55:00;;;;;;;0.00;0.00;;;23.60;92.30;;;;;;4976951;28;20073;-81
2022/08/15 03:57:29;;;;;;;0.00;0.00;;;23.50;92.40;;;;;;4977518;28;20051;-84
2022/08/15 04:00:19;;;;;;;0.00;0.00;;;23.50;92.70;;;;;;4971267;28;20111;-82
2022/08/15 04:02:46;;;;;;;0.00;0.00;;;23.40;92.90;;;;;;4989923;28;20048;-83
2022/08/15 04:05:16;;;;;;;0.00;0.00;;;23.40;93.10;;;;;;4999212;28;20070;-82
2022/08/15 04:07:49;;;;;;;0.00;0.00;;;23.30;92.70;;;;;;4989500;28;20051;-82
2022/08/15 04:10:23;;;;;;;0.00;0.00;;;23.40;93.20;;;;;;4992224;28;20027;-82
2022/08/15 04:13:08;;;;;;;0.00;0.00;;;23.30;93.30;;;;;;4987237;28;20055;-81
2022/08/15 04:15:38;;;;;;;0.00;0.00;;;23.40;93.40;;;;;;4975576;28;20058;-81
2022/08/15 04:18:06;;;;;;;0.00;0.00;;;23.40;93.50;;;;;;4991977;28;20059;-81
2022/08/15 04:20:54;;;;;;;0.00;0.00;;;23.30;93.50;;;;;;4974232;28;20059;-80
2022/08/15 04:23:21;;;;;;;0.00;0.00;;;24.80;93.50;;;;;;4979699;28;20031;-82
2022/08/15 04:25:51;;;;;;;0.00;0.00;;;23.30;93.20;;;;;;4978879;28;20028;-83
2022/08/15 04:28:23;;;;;;;0.00;0.00;;;23.30;93.50;;;;;;4994016;28;20035;-82
2022/08/15 04:31:13;;;;;;;;;;;23.50;93.30;;;;;;4970960;28;20035;-81
2022/08/15 04:33:40;;;;;;;;;;;23.30;93.60;;;;;;4975558;28;19919;-81
2022/08/15 04:36:27;;;;;;;0.00;0.00;;;23.30;93.70;;;;;;4974821;28;19982;-82
2022/08/15 04:38:57;;;;;;;0.00;0.00;;;25.20;94.10;;;;;;4992673;28;20051;-83
2022/08/15 04:41:30;;;;;;;0.00;0.00;;;23.50;94.60;;;;;;4978048;28;20037;-83
2022/08/15 04:44:03;;;;;;;0.00;0.00;;;24.60;95.30;;;;;;4970867;28;20043;-82
2022/08/15 04:46:32;;;;;;;0.00;0.00;;;23.00;95.00;;;;;;4974539;28;20053;-82
2022/08/15 04:48:59;;;;;;;0.00;0.00;;;23.20;95.80;;;;;;4967784;28;20030;-83
2022/08/15 04:51:27;;;;;;;0.00;0.00;;;23.10;96.50;;;;;;4975519;28;20047;-82
2022/08/15 04:54:01;;;;;;;0.00;0.00;;;23.00;97.00;;;;;;4976446;28;20058;-83
2022/08/15 04:56:28;;;;;;;0.00;0.00;;;23.50;97.30;;;;;;4995154;28;20248;-82
2022/08/15 04:59:15;;;;;;;0.00;0.00;;;23.00;96.40;;;;;;4975632;28;20051;-81
2022/08/15 05:02:02;;;;;;;0.00;0.00;;;23.70;97.20;;;;;;4989262;28;20045;-81
2022/08/15 05:04:49;;;;;;;0.00;0.00;;;23.00;96.00;;;;;;4987678;28;20104;-80
2022/08/15 05:07:22;;;;;;;0.00;0.00;;;23.60;96.90;;;;;;4972747;28;20058;-81
2022/08/15 05:09:53;;;;;;;0.00;0.00;;;23.00;97.40;;;;;;4976565;28;20046;-81
2022/08/15 05:12:29;;;;;;;0.00;0.00;;;23.00;97.00;;;;;;4991015;28;20091;-83
2022/08/15 05:15:00;;;;;;;0.00;0.00;;;23.00;96.90;;;;;;4979576;28;20039;-82
2022/08/15 05:17:29;;;;;;;0.00;0.00;;;22.70;97.30;;;;;;4973882;28;20082;-81
2022/08/15 05:20:18;;;;;;;0.00;0.00;;;22.70;97.10;;;;;;4986513;28;20099;-81
2022/08/15 05:22:53;;;;;;;0.00;0.00;;;23.60;96.80;;;;;;4978396;28;20039;-80
2022/08/15 05:25:21;;;;;;;0.00;0.00;;;23.00;96.30;;;;;;4975763;28;20043;-83
2022/08/15 05:27:52;;;;;;;0.00;0.00;;;22.90;96.30;;;;;;4983245;28;20039;-81
2022/08/15 05:30:22;;;;;;;0.00;0.00;;;23.80;96.20;;;;;;4969802;28;20047;-83
2022/08/15 05:33:03;;;;;;;0.00;0.00;;;23.00;96.80;;;;;;4988443;28;20055;-82
2022/08/15 05:35:31;;;;;;;0.00;0.00;;;23.10;97.10;;;;;;4974539;28;20047;-83
2022/08/15 05:38:03;;;;;;;0.00;0.00;;;24.60;97.70;;;;;;4970661;28;20066;-83
2022/08/15 05:41:00;;;;;;;0.00;0.00;;;23.10;96.90;;;;;;4969825;28;20050;-82
2022/08/15 05:43:43;;;;;;;0.00;0.00;;;24.40;96.50;;;;;;4972990;28;20035;-83
2022/08/15 05:46:24;;;;;;;0.00;0.00;;;23.30;96.00;;;;;;4991766;28;20039;-81
2022/08/15 05:49:01;;;;;;;0.00;0.00;;;23.40;96.90;;;;;;4993425;28;20057;-81
2022/08/15 05:51:34;;;;;;;0.00;0.00;;;23.40;96.50;;;;;;4975301;28;20019;-81
2022/08/15 05:54:28;;;;;;;0.00;0.00;;;25.10;96.70;;;;;;4986054;28;20054;-81
2022/08/15 05:57:04;;;;;;;0.00;0.00;;;23.60;95.50;;;;;;4977954;28;20027;-81
2022/08/15 05:59:37;;;;;;;0.00;0.00;;;23.70;96.00;;;;;;4977416;28;20058;-80
2022/08/15 06:02:18;;;;;;;0.00;0.00;;;23.70;96.10;;;;;;4989573;28;20041;-82
2022/08/15 06:05:11;;;;;;;0.00;0.00;;;25.50;96.40;;;;;;4980997;28;20066;-83
2022/08/15 06:07:41;;;;;;;0.00;0.00;;;23.90;96.10;;;;;;4977949;28;20066;-82
2022/08/15 06:10:27;;;;;;;0.00;0.00;;;23.90;94.30;;;;;;4974650;28;20055;-82
2022/08/15 06:13:09;;;;;;;0.00;0.00;;;24.80;93.80;;;;;;4976214;28;20039;-83
2022/08/15 06:15:46;;;;;;;0.00;0.00;;;25.70;93.50;;;;;;4974683;28;20046;-80
2022/08/15 06:18:23;;;;;;;0.00;0.00;;;24.30;93.00;;;;;;4972737;28;20039;-80
2022/08/15 06:20:58;;;;;;;0.00;0.00;;;24.40;93.40;;;;;;4976033;28;20035;-81
2022/08/15 06:23:35;;;;;;;0.00;0.00;;;24.90;94.80;;;;;;4977846;28;20067;-81
2022/08/15 06:26:17;;;;;;;0.00;0.00;;;24.50;94.20;;;;;;4976759;28;20370;-81
2022/08/15 06:29:00;;;;;;;0.00;0.00;;;24.30;94.40;;;;;;4972111;28;20027;-81
2022/08/15 06:31:33;;;;;;;0.00;0.00;;;24.20;94.70;;;;;;4977071;28;20043;-82
2022/08/15 06:34:20;;;;;;;0.00;0.00;;;24.00;95.00;;;;;;4987387;28;20035;-81
2022/08/15 06:37:16;;;;;;;0.00;0.00;;;24.10;95.80;;;;;;4989414;28;20103;-81
2022/08/15 06:39:58;;;;;;;0.00;0.00;;;24.50;96.10;;;;;;4972090;28;20027;-83
2022/08/15 06:42:33;;;;;;;0.00;0.00;;;24.00;96.00;;;;;;4990429;28;20043;-83
2022/08/15 06:45:08;;;;;;;0.00;0.00;;;24.70;95.70;;;;;;4979326;28;20051;-83
2022/08/15 06:47:35;;;;;;;0.00;0.00;;;24.20;95.40;;;;;;4984963;28;20039;-80
2022/08/15 06:50:09;;;;;;;0.00;0.00;;;24.50;94.70;;;;;;4979066;28;20020;-82
2022/08/15 06:52:49;;;;;;;0.00;0.00;;;24.70;94.60;;;;;;4982350;28;20051;-82
2022/08/15 06:55:22;;;;;;;0.00;0.00;;;24.80;93.90;;;;;;4998064;28;20047;-82
2022/08/15 06:57:56;;;;;;;0.00;0.00;;;25.50;94.10;;;;;;4982439;28;20106;-83
2022/08/15 07:00:36;;;;;;;0.00;0.00;;;24.90;93.60;;;;;;4977460;28;20033;-82
2022/08/15 07:03:11;;;;;;;0.00;0.00;;;25.10;93.10;;;;;;4982777;28;20043;-84
2022/08/15 07:05:45;;;;;;;0.00;0.00;;;25.40;92.50;;;;;;4982108;28;20047;-81
2022/08/15 07:08:29;;;;;;;0.00;0.00;;;25.50;92.40;;;;;;4984696;28;20051;-84
2022/08/15 07:11:09;;;;;;;0.00;0.00;;;25.70;92.40;;;;;;4998343;28;20042;-83
2022/08/15 07:13:58;;;;;;;0.00;0.00;;;27.50;92.20;;;;;;4978386;28;20047;-81
2022/08/15 07:16:52;;;;;;;0.00;0.00;;;25.90;92.00;;;;;;4979286;28;20035;-85
2022/08/15 07:19:19;;;;;;;0.00;0.00;;;25.90;91.10;;;;;;4982256;28;20035;-85
2022/08/15 07:21:48;;;;;;;0.00;0.00;;;26.40;90.90;;;;;;4997174;28;20047;-83
2022/08/15 07:24:27;;;;;;;0.00;0.00;;;26.10;90.70;;;;;;4978174;28;20040;-83
2022/08/15 07:27:07;;;;;;;0.00;0.00;;;26.90;91.60;;;;;;4997037;28;20043;-83
2022/08/15 07:29:44;;;;;;;0.00;0.00;;;26.20;92.00;;;;;;4981093;28;20047;-83
2022/08/15 07:32:27;;;;;;;0.00;0.00;;;26.30;91.90;;;;;;4988721;28;20042;-83
2022/08/15 07:35:14;;;;;;;0.00;0.00;;;26.10;91.00;;;;;;4979484;28;20043;-85
2022/08/15 07:37:50;;;;;;;0.00;0.00;;;26.90;91.90;;;;;;4979910;28;20047;-86
2022/08/15 07:40:27;;;;;;;0.00;0.00;;;26.30;91.60;;;;;;4980968;28;20053;-83
2022/08/15 07:42:58;;;;;;;0.00;0.00;;;26.20;91.30;;;;;;4979881;28;20078;-85
2022/08/15 07:45:39;;;;;;;0.00;0.00;;;26.80;90.60;;;;;;4995256;28;20051;-83
2022/08/15 07:48:20;;;;;;;0.00;0.00;;;26.20;90.50;;;;;;4982041;28;20035;-84
2022/08/15 07:51:03;;;;;;;0.00;0.00;;;27.50;91.90;;;;;;4995130;28;20063;-81
2022/08/15 07:53:31;;;;;;;0.00;0.00;;;26.10;90.90;;;;;;4978789;28;20041;-83
2022/08/15 07:56:12;;;;;;;0.00;0.00;;;26.30;90.40;;;;;;4978300;28;20027;-83
2022/08/15 07:59:09;;;;;;;0.00;0.00;;;26.20;90.50;;;;;;4989186;28;20037;-83
2022/08/15 08:01:37;;;;;;;0.00;0.00;;;26.20;90.50;;;;;;4977134;28;20035;-83
2022/08/15 08:04:09;;;;;;;0.00;0.00;;;26.20;90.00;;;;;;4994066;28;20051;-84
2022/08/15 08:06:56;;;;;;;0.00;0.00;;;26.80;90.30;;;;;;4992198;28;20045;-83
2022/08/15 08:09:30;;;;;;;0.00;0.00;;;26.40;89.20;;;;;;4975769;28;20047;-81
2022/08/15 08:12:14;;;;;;;0.00;0.00;;;26.40;89.50;;;;;;4978628;29;20035;-84
2022/08/15 08:15:14;;;;;;;0.00;0.00;;;26.40;89.20;;;;;;4974059;28;20116;-82
2022/08/15 08:17:44;;;;;;;;;;;28.60;90.10;;;;;;4971949;28;20519;-82
2022/08/15 08:20:20;;;;;;;0.00;0.00;;;26.50;89.00;;;;;;4977577;28;20001;-82
2022/08/15 08:22:54;;;;;;;0.00;0.00;;;26.50;89.10;;;;;;4979121;28;20051;-85
2022/08/15 08:25:26;;;;;;;0.00;0.00;;;26.50;89.00;;;;;;4990627;28;20031;-81
2022/08/15 08:28:27;;;;;;;0.00;0.00;;;26.60;89.20;;;;;;4970296;28;20110;-81
2022/08/15 08:31:02;;;;;;;0.00;0.00;;;26.50;88.80;;;;;;4991935;28;20059;-84
2022/08/15 08:33:50;;;;;;;0.00;0.00;;;26.60;88.00;;;;;;4977590;29;20059;-83
2022/08/15 08:36:29;;;;;;;0.00;0.00;;;26.70;87.70;;;;;;4976435;28;20051;-84
2022/08/15 08:39:22;;;;;;;0.00;0.00;;;26.70;88.50;;;;;;4972521;29;20036;-82
2022/08/15 08:41:58;;;;;;;0.00;0.00;;;26.70;87.60;;;;;;4989161;28;20141;-81
2022/08/15 08:44:39;;;;;;;0.00;0.00;;;26.70;88.70;;;;;;4987782;28;20054;-82
2022/08/15 08:47:21;;;;;;;0.00;0.00;;;28.40;90.30;;;;;;4965855;28;20467;-84
2022/08/15 08:50:02;;;;;;;0.00;0.00;;;26.70;89.20;;;;;;4991523;28;20058;-84
2022/08/15 08:52:58;;;;;;;0.00;0.00;;;27.50;89.80;;;;;;4971910;28;20146;-83
2022/08/15 08:55:29;;;;;;;0.00;0.00;;;27.30;89.10;;;;;;4974581;28;20039;-81
2022/08/15 08:58:18;;;;;;;0.00;0.00;;;26.80;89.60;;;;;;4965477;28;20019;-84
2022/08/15 09:01:11;;;;;;;0.00;0.00;;;26.90;88.40;;;;;;4966093;28;20112;-83
2022/08/15 09:03:46;;;;;;;0.00;0.00;;;27.50;89.30;;;;;;4988075;28;20043;-84
2022/08/15 09:06:22;;;;;;;0.00;0.00;;;27.20;86.70;;;;;;4988440;28;20051;-84
2022/08/15 09:09:04;;;;;;;0.00;0.00;;;27.30;89.90;;;;;;4983726;28;20046;-84
2022/08/15 09:11:38;;;;;;;0.00;0.00;;;27.20;87.50;;;;;;4976076;28;20042;-83
2022/08/15 09:14:17;;;;;;;0.00;0.00;;;27.40;88.10;;;;;;4971366;28;20043;-85
2022/08/15 09:17:04;;;;;;;0.00;0.00;;;27.30;87.40;;;;;;4983365;28;20180;-84
2022/08/15 09:19:56;;;;;;;0.00;0.00;;;27.40;87.80;;;;;;4977148;28;20094;-85
2022/08/15 09:22:24;;;;;;;0.00;0.00;;;28.30;88.80;;;;;;4985224;28;20503;-84
2022/08/15 09:24:54;;;;;;;0.00;0.00;;;27.40;84.40;;;;;;4970054;29;20074;-86
2022/08/15 09:27:41;;;;;;;0.00;0.00;;;27.40;86.90;;;;;;4968948;28;20047;-85
2022/08/15 09:30:24;;;;;;;0.00;0.00;;;27.60;86.40;;;;;;4970967;28;20046;-84
2022/08/15 09:33:29;;;;;;;0.00;0.00;;;27.60;84.60;;;;;;4970880;28;20119;-86
2022/08/15 09:36:22;;;;;;;0.00;0.00;;;27.60;85.40;;;;;;4969805;29;20034;-83
2022/08/15 09:39:07;;;;;;;0.00;0.00;;;27.60;86.10;;;;;;4971786;28;20043;-84
2022/08/15 09:41:52;;;;;;;0.00;0.00;;;28.00;86.60;;;;;;4971630;28;20031;-85
2022/08/15 09:45:07;;;;;;;0.00;0.00;;;27.70;87.00;;;;;;4984409;28;20326;-86
2022/08/15 09:48:00;;;;;;;0.00;0.00;;;28.60;86.00;;;;;;4971784;28;20315;-85
2022/08/15 09:50:59;;;;;;;0.00;0.00;;;27.90;84.80;;;;;;4987295;28;20051;-84
2022/08/15 09:53:51;;;;;;;0.00;0.00;;;27.80;85.00;;;;;;4975212;28;20080;-84
2022/08/15 09:56:30;;;;;;;0.00;0.00;;;27.80;85.00;;;;;;4985624;28;20077;-85
2022/08/15 09:59:14;;;;;;;0.00;0.00;;;27.70;85.30;;;;;;4980644;28;20043;-84
2022/08/15 10:01:52;;;;;;;0.00;0.00;;;27.80;85.50;;;;;;4968504;28;20336;-82
2022/08/15 10:04:40;;;;;;;0.00;0.00;;;29.20;84.50;;;;;;4984376;28;20055;-85
2022/08/15 10:07:42;;;;;;;0.00;0.00;;;27.90;84.80;;;;;;4972341;28;20051;-83
2022/08/15 10:10:25;;;;;;;0.00;0.00;;;28.00;85.50;;;;;;4987583;28;20050;-84
2022/08/15 10:13:23;;;;;;;0.00;0.00;;;28.10;82.80;;;;;;4971892;29;20043;-84
2022/08/15 10:15:50;;;;;;;0.00;0.00;;;28.40;83.70;;;;;;4984332;28;20047;-83
2022/08/15 10:18:55;;;;;;;0.00;0.00;;;28.60;83.50;;;;;;4968708;28;20086;-83
2022/08/15 10:21:32;;;;;;;0.00;0.00;;;28.10;83.20;;;;;;4968461;28;20043;-82
2022/08/15 10:24:03;;;;;;;0.00;0.00;;;28.20;82.30;;;;;;4986246;28;20047;-85
2022/08/15 10:27:20;;;;;;;0.00;0.00;;;29.90;83.10;;;;;;4970037;28;20062;-85
2022/08/15 10:29:50;;;;;;;0.00;0.00;;;28.00;81.60;;;;;;4969003;28;20030;-81
2022/08/15 10:32:40;;;;;;;0.00;0.00;;;27.90;80.80;;;;;;4965487;28;20074;-81
2022/08/15 10:35:35;;;;;;;0.00;0.00;;;27.90;80.80;;;;;;4964437;29;20061;-82
2022/08/15 10:38:07;;;;;;;0.00;0.00;;;28.00;81.40;;;;;;4983389;28;20043;-83
2022/08/15 10:41:08;;;;;;;0.00;0.00;;;28.10;81.30;;;;;;4968762;28;20111;-82
2022/08/15 10:43:58;;;;;;;0.00;0.00;;;28.10;81.60;;;;;;4980030;28;20051;-83
2022/08/15 10:46:44;;;;;;;0.00;0.00;;;28.60;82.10;;;;;;4983744;28;20059;-84
2022/08/15 10:49:23;;;;;;;0.00;0.00;;;28.30;81.90;;;;;;4969267;28;20039;-84
2022/08/15 10:52:08;;;;;;;0.00;0.00;;;28.40;82.30;;;;;;4983100;28;20058;-84
2022/08/15 10:55:03;;;;;;;0.00;0.00;;;28.70;81.40;;;;;;4966914;29;20051;-85
2022/08/15 10:57:44;;;;;;;0.00;0.00;;;28.60;81.80;;;;;;4966590;29;20085;-83
2022/08/15 11:00:17;;;;;;;0.00;0.00;;;28.60;81.40;;;;;;4956805;28;20047;-84
2022/08/15 11:03:17;;;;;;;0.00;0.00;;;28.80;82.10;;;;;;4971127;29;20118;-85
2022/08/15 11:05:57;;;;;;;0.00;0.00;;;28.70;82.20;;;;;;4965479;29;20035;-84
2022/08/15 11:08:24;;;;;;;0.00;0.00;;;28.70;81.70;;;;;;4972503;28;20079;-83
2022/08/15 11:11:07;;;;;;;0.00;0.00;;;28.70;81.70;;;;;;4968559;28;20047;-84
2022/08/15 11:13:37;;;;;;;0.00;0.00;;;28.60;81.60;;;;;;4965843;28;20050;-84
2022/08/15 11:16:11;;;;;;;0.00;0.00;;;29.30;84.10;;;;;;4982566;28;20039;-85
2022/08/15 11:18:59;;;;;;;0.00;0.00;;;28.30;82.90;;;;;;4980336;28;20051;-83
2022/08/15 11:21:35;;;;;;;0.00;0.00;;;29.90;84.10;;;;;;4968523;28;20082;-83
2022/08/15 11:24:09;;;;;;;0.00;0.00;;;28.20;84.00;;;;;;4963732;28;20071;-83
2022/08/15 11:26:39;;;;;;;0.00;0.00;;;28.00;83.90;;;;;;4964125;28;20050;-84
2022/08/15 11:29:17;;;;;;;0.00;0.00;;;28.20;84.40;;;;;;4962397;28;20062;-84
2022/08/15 11:31:48;;;;;;;0.00;0.00;;;27.70;85.00;;;;;;4970268;28;20083;-85
2022/08/15 11:34:26;;;;;;;0.00;0.00;;;27.60;84.20;;;;;;4982713;28;20061;-83
2022/08/15 11:37:11;;;;;;;0.00;0.00;;;27.60;85.20;;;;;;4984329;28;20047;-85
2022/08/15 11:39:50;;;;;;;0.00;0.00;;;27.50;86.00;;;;;;4973153;28;20039;-83
2022/08/15 11:42:20;;;;;;;0.00;0.00;;;27.50;85.70;;;;;;4969232;28;20083;-84
2022/08/15 11:44:56;;;;;;;0.00;0.00;;;27.40;85.30;;;;;;4972471;28;20047;-85
2022/08/15 11:47:25;;;;;;;0.00;0.00;;;27.30;85.60;;;;;;4972463;28;20054;-84
2022/08/15 11:50:00;;;;;;;0.00;0.00;;;27.30;85.00;;;;;;4988326;28;20063;-84
2022/08/15 11:52:31;;;;;;;0.00;0.00;;;27.70;84.20;;;;;;4972355;28;20027;-86
2022/08/15 11:55:20;;;;;;;0.00;0.00;;;27.00;84.70;;;;;;4984747;28;20059;-82
2022/08/15 11:57:56;;;;;;;0.00;0.00;;;28.70;86.30;;;;;;4972595;29;20044;-84
2022/08/15 12:00:28;;;;;;;0.00;0.00;;;27.30;85.40;;;;;;4974684;28;20051;-86
2022/08/15 12:02:57;;;;;;;0.00;0.00;;;27.30;84.60;;;;;;4984668;28;20062;-82
2022/08/15 12:05:44;;;;;;;0.00;0.00;;;29.00;86.20;;;;;;4969824;28;20110;-84
2022/08/15 12:08:33;;;;;;;0.00;0.00;;;27.10;86.20;;;;;;4971467;28;20055;-82
2022/08/15 12:11:03;;;;;;;0.00;0.00;;;27.10;89.30;;;;;;4973475;28;20043;-82
2022/08/15 12:13:55;;;;;;;0.00;0.00;;;27.00;89.50;;;;;;4977902;28;20116;-83
2022/08/15 12:16:26;;;;;;;0.00;0.00;;;29.60;91.80;;;;;;4967219;28;20070;-84
2022/08/15 12:18:57;;;;;;;0.00;0.00;;;27.10;92.00;;;;;;4972048;28;20077;-84
2022/08/15 12:21:25;;;;;;;0.00;0.00;;;27.00;92.20;;;;;;4968297;28;20049;-84
2022/08/15 12:23:55;;;;;;;0.00;0.00;;;26.90;92.80;;;;;;4969137;28;20118;-81
2022/08/15 12:26:25;;;;;;;0.00;0.00;;;26.70;93.00;;;;;;4971882;29;20047;-83
2022/08/15 12:29:12;;;;;;;0.00;0.00;;;26.60;92.80;;;;;;4983943;28;20060;-84
2022/08/15 12:31:42;;;;;;;0.00;0.00;;;26.20;93.40;;;;;;4971156;28;20065;-83
2022/08/15 12:34:12;;;;;;;0.00;0.00;;;26.50;93.70;;;;;;4967691;28;20054;-82
2022/08/15 12:37:00;;;;;;;0.00;0.00;;;25.90;93.40;;;;;;4975957;28;20057;-83
2022/08/15 12:39:32;;;;;;;0.00;0.00;;;25.80;94.40;;;;;;4988289;28;20043;-83
2022/08/15 12:41:59;;;;;;;0.00;0.00;;;25.70;95.10;;;;;;4975730;28;20031;-83
2022/08/15 12:44:48;;;;;;;0.00;0.00;;;25.40;95.20;;;;;;4985785;28;20106;-84
2022/08/15 12:47:18;;;;;;;0.00;0.00;;;25.10;95.70;;;;;;4988257;28;20032;-83
2022/08/15 12:49:45;;;;;;;0.00;0.00;;;;;;;;;;4973826;28;20079;-83
2022/08/15 12:52:15;;;;;;;0.00;0.00;;;25.10;95.90;;;;;;4972415;28;20136;-82
2022/08/15 12:54:51;;;;;;;0.00;0.00;;;24.90;96.80;;;;;;4974266;28;20027;-83
2022/08/15 12:57:20;;;;;;;0.00;0.00;;;25.50;97.50;;;;;;4992032;28;20020;-81
2022/08/15 12:59:49;;;;;;;0.00;0.00;;;24.60;97.90;;;;;;4988046;28;20035;-83
2022/08/15 13:02:16;;;;;;;0.00;0.00;;;;;;;;;;4990355;28;20043;-81
2022/08/15 13:05:07;;;;;;;0.00;0.00;;;24.30;98.60;;;;;;4969342;28;20103;-81
2022/08/15 13:07:40;;;;;;;0.00;0.00;;;24.20;99.30;;;;;;4971790;28;20049;-82
2022/08/15 13:10:27;;;;;;;0.00;0.00;;;24.20;99.90;;;;;;4975583;28;20051;-82
2022/08/15 13:13:16;;;;;;;0.00;0.00;;;;;;;;;;4971651;28;20098;-84
2022/08/15 13:15:44;;;;;;;0.00;0.00;;;24.00;99.90;;;;;;4973941;28;20061;-81
2022/08/15 13:18:21;;;;;;;0.00;0.00;;;23.80;99.90;;;;;;4991561;28;20071;-82
2022/08/15 13:23:39;;;;;;;0.00;0.00;;;24.00;99.90;;;;;;4977304;28;20058;-81
2022/08/15 13:26:27;;;;;;;0.00;0.00;;;23.90;99.90;;;;;;4984795;28;20102;-82
2022/08/15 13:29:00;;;;;;;0.00;0.00;;;24.10;99.90;;;;;;4975931;28;20051;-82
2022/08/15 13:31:28;;;;;;;0.00;0.00;;;24.00;99.90;;;;;;4973861;28;20026;-83
2022/08/15 13:33:58;;;;;;;0.00;0.00;;;24.10;99.90;;;;;;4969394;28;20055;-81
2022/08/15 13:36:28;;;;;;;0.00;0.00;;;24.10;99.90;;;;;;4971710;28;20038;-81
2022/08/15 13:39:02;;;;;;;0.00;0.00;;;24.20;99.90;;;;;;4975446;28;20298;-81
2022/08/15 13:41:40;;;;;;;0.00;0.00;;;;;;;;;;4991723;28;20083;-80
2022/08/15 13:44:27;;;;;;;0.00;0.00;;;24.50;99.90;;;;;;4970967;28;20099;-81
2022/08/15 13:46:57;;;;;;;0.00;0.00;;;24.30;99.90;;;;;;4995750;28;20046;-83